Aérodrome :







RETROUVEZ-NOUS SUR...

 
LOGIN :

S'inscrire | Disclaimer

   EN    FR    IT 

 









Légende :    VFR   VFR Marginal   IFR   IFR Intensif   IFR Très Intensif
Visi : 
Plafond : 
>= 8 km
>= 3000ft
5 à 8 km
1000 à 3000 ft
1500m à 5 km
500 à 1000 ft
800 à 1500m
200 à 500 ft
< 800m
< 200 ft
Symboles :   Orages  Brouillard  Fortes neiges  Fortes précipitations  Vent > 20 kt






- Altitude de l'aérodrome : 234 ft
- Code IATA : PBG


KPBG - Plattsburgh International

DERNIER METAR :
  • 071753Z AUTO 14016G25KT 10SM CLR 28/19 A2998 RMK AO2 SLP153 T02780194 10283 20206 58016 TSNO

METARs EXPIRÉS :
  • 071653Z AUTO 14015KT 10SM CLR 27/19 A3000 RMK AO2 SLP158 T02720194 TSNO
  • 071553Z AUTO 14017KT 10SM CLR 26/19 A3002 RMK AO2 SLP165 T02560194 TSNO

TAF KPBG
Valide du 07 à 18h jusqu'au 08 à 18h UTC


071801Z 0718/0818 14012G21KT P6SM FEW250
FM072300 18006KT P6SM SCT150
FM080900 19005KT P6SM VCSH BKN080
FM081400 20006KT P6SM BKN050
FM081600 20008KT P6SM VCSH BKN050
FIR KZBW / Amérique du Nord



MET'MAP, la Météo Aéronautique d'un coup d'oeil ! - Copyright ORBIFLY Décembre 2007 - Disclaimer

ORBIFLY MET'MAP TEAM :

Programmation & Développement : Alexandra Zaïnal
Sur une idée originale de : Baudouin d'Aumeries
Assistance à la programmation : Marc-Olivier Méhu
Soutien technique & logistique : Manuel Goepfert

Contact : metmap@orbifly.com




SOURCES & CREDITS :

   NOAA